sensor_id;sensor_type;location;lat;lon;timestamp;pressure;altitude;pressure_sealevel;temperature;humidity
43934;BME280;59081;42.706;23.306;2022-09-30T00:01:22;94938.59;;;15.36;100.00
43934;BME280;59081;42.706;23.306;2022-09-30T00:03:51;94939.38;;;15.37;100.00
43934;BME280;59081;42.706;23.306;2022-09-30T00:06:20;94945.56;;;15.31;100.00
43934;BME280;59081;42.706;23.306;2022-09-30T00:08:51;94950.63;;;15.09;100.00
43934;BME280;59081;42.706;23.306;2022-09-30T00:11:22;94778.56;;;14.08;100.00
43934;BME280;59081;42.706;23.306;2022-09-30T00:13:55;94891.84;;;14.72;100.00
43934;BME280;59081;42.706;23.306;2022-09-30T00:16:25;94858.56;;;14.48;100.00
43934;BME280;59081;42.706;23.306;2022-09-30T00:19:00;94739.03;;;13.75;100.00
43934;BME280;59081;42.706;23.306;2022-09-30T00:21:34;94860.22;;;14.55;100.00
43934;BME280;59081;42.706;23.306;2022-09-30T00:24:00;94899.59;;;14.92;100.00
43934;BME280;59081;42.706;23.306;2022-09-30T00:26:28;94690.28;;;13.44;100.00
43934;BME280;59081;42.706;23.306;2022-09-30T00:29:02;94930.88;;;15.16;100.00
43934;BME280;59081;42.706;23.306;2022-09-30T00:31:33;94858.88;;;14.74;100.00
43934;BME280;59081;42.706;23.306;2022-09-30T00:34:01;94764.53;;;14.12;100.00
43934;BME280;59081;42.706;23.306;2022-09-30T00:36:48;94910.94;;;15.03;100.00
43934;BME280;59081;42.706;23.306;2022-09-30T00:39:17;94753.69;;;13.99;100.00
43934;BME280;59081;42.706;23.306;2022-09-30T00:41:49;94855.47;;;14.79;100.00
43934;BME280;59081;42.706;23.306;2022-09-30T00:55:39;94769.63;;;14.13;100.00
43934;BME280;59081;42.706;23.306;2022-09-30T00:58:27;94934.00;;;15.09;100.00
43934;BME280;59081;42.706;23.306;2022-09-30T01:00:55;94931.97;;;15.10;100.00
43934;BME280;59081;42.706;23.306;2022-09-30T01:03:26;94723.41;;;13.20;100.00
43934;BME280;59081;42.706;23.306;2022-09-30T01:05:53;94676.75;;;12.95;100.00
43934;BME280;59081;42.706;23.306;2022-09-30T01:08:22;94811.00;;;13.75;100.00
43934;BME280;59081;42.706;23.306;2022-09-30T01:10:49;94665.22;;;12.87;100.00
43934;BME280;59081;42.706;23.306;2022-09-30T01:13:18;94888.88;;;14.19;100.00
43934;BME280;59081;42.706;23.306;2022-09-30T01:24:29;94941.28;;;14.32;100.00
43934;BME280;59081;42.706;23.306;2022-09-30T01:33:18;94847.50;;;14.06;100.00
43934;BME280;59081;42.706;23.306;2022-09-30T01:42:03;94766.47;;;13.54;100.00
43934;BME280;59081;42.706;23.306;2022-09-30T01:45:00;94867.94;;;14.18;100.00
43934;BME280;59081;42.706;23.306;2022-09-30T01:50:40;94900.31;;;14.45;100.00
43934;BME280;59081;42.706;23.306;2022-09-30T01:53:47;94732.09;;;13.46;100.00
43934;BME280;59081;42.706;23.306;2022-09-30T01:58:48;94943.09;;;14.86;100.00
43934;BME280;59081;42.706;23.306;2022-09-30T02:01:27;94760.16;;;13.63;100.00
43934;BME280;59081;42.706;23.306;2022-09-30T02:04:01;94819.47;;;14.13;100.00
43934;BME280;59081;42.706;23.306;2022-09-30T02:06:37;94906.97;;;14.71;100.00
43934;BME280;59081;42.706;23.306;2022-09-30T02:09:23;94953.66;;;14.96;100.00
43934;BME280;59081;42.706;23.306;2022-09-30T02:11:52;94813.94;;;14.13;100.00
43934;BME280;59081;42.706;23.306;2022-09-30T02:17:01;94858.16;;;14.32;99.82
43934;BME280;59081;42.706;23.306;2022-09-30T02:19:42;94875.41;;;14.36;99.82
43934;BME280;59081;42.706;23.306;2022-09-30T02:22:25;94932.25;;;14.64;100.00
43934;BME280;59081;42.706;23.306;2022-09-30T02:25:00;94956.88;;;14.71;100.00
43934;BME280;59081;42.706;23.306;2022-09-30T02:27:40;94924.66;;;14.41;100.00
43934;BME280;59081;42.706;23.306;2022-09-30T02:30:13;94720.50;;;12.97;100.00
43934;BME280;59081;42.706;23.306;2022-09-30T02:32:44;94960.03;;;14.46;100.00
43934;BME280;59081;42.706;23.306;2022-09-30T02:35:33;94852.84;;;13.77;100.00
43934;BME280;59081;42.706;23.306;2022-09-30T02:38:09;94770.25;;;13.24;100.00
43934;BME280;59081;42.706;23.306;2022-09-30T02:40:42;94777.00;;;13.23;100.00
43934;BME280;59081;42.706;23.306;2022-09-30T02:43:22;94962.22;;;14.42;100.00
43934;BME280;59081;42.706;23.306;2022-09-30T02:46:02;94906.72;;;14.09;100.00
43934;BME280;59081;42.706;23.306;2022-09-30T02:49:07;94963.13;;;14.48;100.00
43934;BME280;59081;42.706;23.306;2022-09-30T02:52:14;94953.56;;;14.40;100.00
43934;BME280;59081;42.706;23.306;2022-09-30T03:00:26;94931.03;;;14.14;100.00
43934;BME280;59081;42.706;23.306;2022-09-30T03:03:05;94965.31;;;14.35;100.00
43934;BME280;59081;42.706;23.306;2022-09-30T03:05:34;94830.00;;;13.49;100.00
43934;BME280;59081;42.706;23.306;2022-09-30T03:08:03;94843.66;;;13.52;100.00
43934;BME280;59081;42.706;23.306;2022-09-30T03:10:29;94872.53;;;13.70;100.00
43934;BME280;59081;42.706;23.306;2022-09-30T03:13:28;94897.91;;;13.59;100.00
43934;BME280;59081;42.706;23.306;2022-09-30T03:30:17;94731.88;;;11.67;100.00
43934;BME280;59081;42.706;23.306;2022-09-30T03:38:18;94976.31;;;13.56;100.00
43934;BME280;59081;42.706;23.306;2022-09-30T03:41:01;94977.69;;;13.70;100.00
43934;BME280;59081;42.706;23.306;2022-09-30T03:43:36;94970.03;;;13.65;100.00
43934;BME280;59081;42.706;23.306;2022-09-30T03:46:23;94804.03;;;12.46;100.00
43934;BME280;59081;42.706;23.306;2022-09-30T03:48:55;94935.75;;;13.44;100.00
43934;BME280;59081;42.706;23.306;2022-09-30T03:51:23;94952.78;;;13.51;100.00
43934;BME280;59081;42.706;23.306;2022-09-30T03:53:51;94830.75;;;12.67;100.00
43934;BME280;59081;42.706;23.306;2022-09-30T03:56:32;95001.69;;;14.00;100.00
43934;BME280;59081;42.706;23.306;2022-09-30T03:59:00;94919.00;;;13.29;100.00
43934;BME280;59081;42.706;23.306;2022-09-30T04:01:28;94909.13;;;13.10;100.00
43934;BME280;59081;42.706;23.306;2022-09-30T04:03:54;94826.13;;;12.64;100.00
43934;BME280;59081;42.706;23.306;2022-09-30T04:06:25;94812.94;;;12.50;100.00
43934;BME280;59081;42.706;23.306;2022-09-30T04:08:56;94754.28;;;12.37;100.00
43934;BME280;59081;42.706;23.306;2022-09-30T04:11:22;94773.66;;;12.55;100.00
43934;BME280;59081;42.706;23.306;2022-09-30T04:13:51;94835.09;;;12.96;100.00
43934;BME280;59081;42.706;23.306;2022-09-30T04:16:19;95001.38;;;13.89;100.00
43934;BME280;59081;42.706;23.306;2022-09-30T04:18:57;94950.66;;;13.46;100.00
43934;BME280;59081;42.706;23.306;2022-09-30T04:21:23;94807.28;;;12.63;100.00
43934;BME280;59081;42.706;23.306;2022-09-30T04:24:01;94833.41;;;12.98;100.00
43934;BME280;59081;42.706;23.306;2022-09-30T04:26:38;94818.50;;;12.86;100.00
43934;BME280;59081;42.706;23.306;2022-09-30T04:29:13;94957.25;;;13.76;100.00
43934;BME280;59081;42.706;23.306;2022-09-30T04:31:39;94826.50;;;12.94;100.00
43934;BME280;59081;42.706;23.306;2022-09-30T04:34:13;94761.84;;;12.54;100.00
43934;BME280;59081;42.706;23.306;2022-09-30T04:36:43;94777.34;;;12.61;100.00
43934;BME280;59081;42.706;23.306;2022-09-30T04:39:09;94852.44;;;13.14;100.00
43934;BME280;59081;42.706;23.306;2022-09-30T04:41:37;95011.22;;;13.99;100.00
43934;BME280;59081;42.706;23.306;2022-09-30T04:44:19;94918.84;;;13.33;100.00
43934;BME280;59081;42.706;23.306;2022-09-30T04:46:57;94908.09;;;13.26;100.00
43934;BME280;59081;42.706;23.306;2022-09-30T04:49:28;94950.34;;;13.63;100.00
43934;BME280;59081;42.706;23.306;2022-09-30T04:51:56;94811.75;;;12.78;100.00
43934;BME280;59081;42.706;23.306;2022-09-30T04:54:24;94857.34;;;13.01;100.00
43934;BME280;59081;42.706;23.306;2022-09-30T04:56:50;94832.28;;;12.68;100.00
43934;BME280;59081;42.706;23.306;2022-09-30T04:59:16;95064.00;;;14.14;100.00
43934;BME280;59081;42.706;23.306;2022-09-30T05:01:47;94837.38;;;12.61;100.00
43934;BME280;59081;42.706;23.306;2022-09-30T05:04:12;94844.59;;;12.76;100.00
43934;BME280;59081;42.706;23.306;2022-09-30T05:06:46;94945.13;;;13.46;100.00
43934;BME280;59081;42.706;23.306;2022-09-30T05:09:16;94850.38;;;12.51;100.00
43934;BME280;59081;42.706;23.306;2022-09-30T05:11:42;94907.72;;;12.78;100.00
43934;BME280;59081;42.706;23.306;2022-09-30T05:14:19;95065.38;;;13.91;100.00
43934;BME280;59081;42.706;23.306;2022-09-30T05:16:47;94857.44;;;12.52;100.00
43934;BME280;59081;42.706;23.306;2022-09-30T05:19:13;94925.88;;;12.97;100.00
43934;BME280;59081;42.706;23.306;2022-09-30T05:21:41;94860.84;;;12.56;100.00
43934;BME280;59081;42.706;23.306;2022-09-30T05:24:12;94822.25;;;12.25;100.00
43934;BME280;59081;42.706;23.306;2022-09-30T05:26:47;95060.06;;;14.66;100.00
43934;BME280;59081;42.706;23.306;2022-09-30T05:29:22;94927.41;;;14.50;100.00
43934;BME280;59081;42.706;23.306;2022-09-30T05:31:53;94893.78;;;14.57;100.00
43934;BME280;59081;42.706;23.306;2022-09-30T05:34:18;94917.88;;;14.75;99.63
43934;BME280;59081;42.706;23.306;2022-09-30T05:36:51;95074.78;;;14.90;98.48
43934;BME280;59081;42.706;23.306;2022-09-30T05:39:19;94887.13;;;13.70;99.50
43934;BME280;59081;42.706;23.306;2022-09-30T05:41:45;94967.47;;;14.21;100.00
43934;BME280;59081;42.706;23.306;2022-09-30T05:44:11;94971.19;;;14.18;100.00
43934;BME280;59081;42.706;23.306;2022-09-30T05:46:36;94950.75;;;14.58;100.00
43934;BME280;59081;42.706;23.306;2022-09-30T05:49:02;94960.22;;;14.75;98.27
43934;BME280;59081;42.706;23.306;2022-09-30T05:51:27;94967.44;;;14.49;98.09
43934;BME280;59081;42.706;23.306;2022-09-30T05:53:55;94947.09;;;13.91;100.00
43934;BME280;59081;42.706;23.306;2022-09-30T05:56:21;94912.50;;;13.78;100.00
43934;BME280;59081;42.706;23.306;2022-09-30T05:58:47;95013.22;;;14.17;100.00
43934;BME280;59081;42.706;23.306;2022-09-30T06:01:18;95018.41;;;14.33;100.00
43934;BME280;59081;42.706;23.306;2022-09-30T06:03:54;95002.91;;;14.08;100.00
43934;BME280;59081;42.706;23.306;2022-09-30T06:06:19;95030.25;;;14.34;100.00
43934;BME280;59081;42.706;23.306;2022-09-30T06:08:51;94986.13;;;14.03;100.00
43934;BME280;59081;42.706;23.306;2022-09-30T06:11:19;95037.06;;;14.05;100.00
43934;BME280;59081;42.706;23.306;2022-09-30T06:13:53;95096.75;;;14.24;100.00
43934;BME280;59081;42.706;23.306;2022-09-30T06:16:19;94890.97;;;13.00;100.00
43934;BME280;59081;42.706;23.306;2022-09-30T06:18:55;95111.53;;;14.49;100.00
43934;BME280;59081;42.706;23.306;2022-09-30T06:21:36;95114.00;;;14.47;100.00
43934;BME280;59081;42.706;23.306;2022-09-30T06:24:10;94944.50;;;13.24;100.00
43934;BME280;59081;42.706;23.306;2022-09-30T06:26:49;94900.84;;;13.10;100.00
43934;BME280;59081;42.706;23.306;2022-09-30T06:29:15;95026.16;;;13.92;100.00
43934;BME280;59081;42.706;23.306;2022-09-30T06:31:56;95138.78;;;14.59;100.00
43934;BME280;59081;42.706;23.306;2022-09-30T06:34:33;95146.00;;;14.57;100.00
43934;BME280;59081;42.706;23.306;2022-09-30T06:37:01;95020.91;;;13.85;100.00
43934;BME280;59081;42.706;23.306;2022-09-30T06:39:29;94952.66;;;13.28;100.00
43934;BME280;59081;42.706;23.306;2022-09-30T06:41:56;94913.75;;;13.13;100.00
43934;BME280;59081;42.706;23.306;2022-09-30T06:44:24;94946.03;;;13.25;100.00
43934;BME280;59081;42.706;23.306;2022-09-30T06:46:54;95037.06;;;13.78;100.00
43934;BME280;59081;42.706;23.306;2022-09-30T06:49:23;94977.22;;;13.35;100.00
43934;BME280;59081;42.706;23.306;2022-09-30T06:51:53;94975.09;;;13.39;100.00
43934;BME280;59081;42.706;23.306;2022-09-30T06:54:28;95112.47;;;14.46;100.00
43934;BME280;59081;42.706;23.306;2022-09-30T06:56:54;95114.00;;;14.01;100.00
43934;BME280;59081;42.706;23.306;2022-09-30T06:59:33;95174.97;;;14.65;100.00
43934;BME280;59081;42.706;23.306;2022-09-30T07:02:19;95037.53;;;13.85;100.00
43934;BME280;59081;42.706;23.306;2022-09-30T07:04:46;95087.22;;;14.16;100.00
43934;BME280;59081;42.706;23.306;2022-09-30T07:07:14;94989.25;;;13.59;100.00
43934;BME280;59081;42.706;23.306;2022-09-30T07:09:52;95100.44;;;14.31;100.00
43934;BME280;59081;42.706;23.306;2022-09-30T07:12:22;95058.72;;;14.25;100.00
43934;BME280;59081;42.706;23.306;2022-09-30T07:14:50;95194.91;;;15.15;100.00
43934;BME280;59081;42.706;23.306;2022-09-30T07:17:16;94967.06;;;13.86;100.00
43934;BME280;59081;42.706;23.306;2022-09-30T07:19:42;95196.66;;;15.45;100.00
43934;BME280;59081;42.706;23.306;2022-09-30T07:22:10;95105.88;;;15.04;100.00
43934;BME280;59081;42.706;23.306;2022-09-30T07:24:54;94995.16;;;14.21;100.00
43934;BME280;59081;42.706;23.306;2022-09-30T07:27:23;94978.28;;;14.19;100.00
43934;BME280;59081;42.706;23.306;2022-09-30T07:29:52;95201.16;;;15.85;100.00
43934;BME280;59081;42.706;23.306;2022-09-30T07:32:19;95149.47;;;15.45;98.78
43934;BME280;59081;42.706;23.306;2022-09-30T07:34:47;95001.22;;;14.71;98.55
43934;BME280;59081;42.706;23.306;2022-09-30T07:37:17;95131.00;;;15.75;95.82
43934;BME280;59081;42.706;23.306;2022-09-30T07:39:51;95202.81;;;16.15;96.51
43934;BME280;59081;42.706;23.306;2022-09-30T07:42:20;95153.13;;;15.60;97.21
43934;BME280;59081;42.706;23.306;2022-09-30T07:44:52;95157.22;;;15.98;96.15
43934;BME280;59081;42.706;23.306;2022-09-30T07:47:21;95033.56;;;15.07;96.35
43934;BME280;59081;42.706;23.306;2022-09-30T07:49:47;95115.72;;;15.94;95.62
43934;BME280;59081;42.706;23.306;2022-09-30T07:52:13;95050.16;;;15.73;92.78
43934;BME280;59081;42.706;23.306;2022-09-30T07:54:40;95222.72;;;17.00;91.18
43934;BME280;59081;42.706;23.306;2022-09-30T07:57:09;95207.97;;;17.23;89.53
43934;BME280;59081;42.706;23.306;2022-09-30T07:59:37;94989.59;;;16.16;88.45
43934;BME280;59081;42.706;23.306;2022-09-30T08:02:06;95212.13;;;17.92;83.81
43934;BME280;59081;42.706;23.306;2022-09-30T08:04:37;95087.06;;;17.10;82.75
43934;BME280;59081;42.706;23.306;2022-09-30T08:07:03;95047.31;;;17.09;81.23
43934;BME280;59081;42.706;23.306;2022-09-30T08:09:30;95015.94;;;17.09;80.11
43934;BME280;59081;42.706;23.306;2022-09-30T08:11:56;95206.59;;;18.68;78.13
43934;BME280;59081;42.706;23.306;2022-09-30T08:14:24;95196.47;;;18.96;77.89
43934;BME280;59081;42.706;23.306;2022-09-30T08:16:51;95042.94;;;18.19;75.38
43934;BME280;59081;42.706;23.306;2022-09-30T08:19:22;95233.28;;;19.46;73.74
43934;BME280;59081;42.706;23.306;2022-09-30T08:21:49;95185.22;;;19.37;71.01
43934;BME280;59081;42.706;23.306;2022-09-30T08:24:22;95151.31;;;19.50;71.75
43934;BME280;59081;42.706;23.306;2022-09-30T08:26:49;95107.66;;;18.95;72.13
43934;BME280;59081;42.706;23.306;2022-09-30T08:29:15;95094.69;;;19.23;70.96
43934;BME280;59081;42.706;23.306;2022-09-30T08:31:44;95239.84;;;20.38;70.32
43934;BME280;59081;42.706;23.306;2022-09-30T08:34:10;95248.22;;;20.01;70.27
43934;BME280;59081;42.706;23.306;2022-09-30T08:36:35;95066.81;;;18.97;70.17
43934;BME280;59081;42.706;23.306;2022-09-30T08:39:01;95147.91;;;19.71;69.65
43934;BME280;59081;42.706;23.306;2022-09-30T08:41:34;95247.94;;;20.84;69.31
43934;BME280;59081;42.706;23.306;2022-09-30T08:52:49;95141.59;;;21.01;65.13
43934;BME280;59081;42.706;23.306;2022-09-30T08:55:23;95248.69;;;21.88;66.03
43934;BME280;59081;42.706;23.306;2022-09-30T08:57:49;95095.50;;;20.96;64.12
43934;BME280;59081;42.706;23.306;2022-09-30T09:00:18;95051.22;;;20.78;63.03
43934;BME280;59081;42.706;23.306;2022-09-30T09:02:50;95198.22;;;21.72;63.07
43934;BME280;59081;42.706;23.306;2022-09-30T09:08:07;95179.63;;;21.52;62.01
43934;BME280;59081;42.706;23.306;2022-09-30T09:10:44;95272.66;;;22.34;60.69
43934;BME280;59081;42.706;23.306;2022-09-30T09:16:04;95173.25;;;21.91;60.10
43934;BME280;59081;42.706;23.306;2022-09-30T09:21:39;95177.41;;;22.58;57.78
43934;BME280;59081;42.706;23.306;2022-09-30T09:24:15;95069.44;;;22.13;57.28
43934;BME280;59081;42.706;23.306;2022-09-30T09:26:42;95207.72;;;23.35;56.62
43934;BME280;59081;42.706;23.306;2022-09-30T09:29:41;95181.31;;;23.43;53.96
43934;BME280;59081;42.706;23.306;2022-09-30T09:32:10;95264.34;;;24.21;53.28
43934;BME280;59081;42.706;23.306;2022-09-30T09:34:37;95216.50;;;24.21;52.44
43934;BME280;59081;42.706;23.306;2022-09-30T09:37:15;95183.41;;;24.03;52.56
43934;BME280;59081;42.706;23.306;2022-09-30T09:40:02;95190.56;;;24.04;49.57
43934;BME280;59081;42.706;23.306;2022-09-30T09:42:57;95216.53;;;24.70;49.71
43934;BME280;59081;42.706;23.306;2022-09-30T09:45:54;95248.47;;;25.40;48.00
43934;BME280;59081;42.706;23.306;2022-09-30T09:48:22;95170.66;;;25.12;48.08
43934;BME280;59081;42.706;23.306;2022-09-30T09:50:56;95152.91;;;25.17;46.26
43934;BME280;59081;42.706;23.306;2022-09-30T09:53:39;95099.31;;;25.04;46.06
43934;BME280;59081;42.706;23.306;2022-09-30T09:56:16;95151.34;;;25.54;45.09
43934;BME280;59081;42.706;23.306;2022-09-30T09:59:09;95250.78;;;26.24;41.45
43934;BME280;59081;42.706;23.306;2022-09-30T10:01:48;95149.19;;;25.92;40.92
43934;BME280;59081;42.706;23.306;2022-09-30T10:04:20;95218.81;;;26.74;39.81
43934;BME280;59081;42.706;23.306;2022-09-30T10:09:36;95175.47;;;26.58;38.15
43934;BME280;59081;42.706;23.306;2022-09-30T10:14:31;95146.97;;;26.96;38.03
43934;BME280;59081;42.706;23.306;2022-09-30T10:17:05;95139.59;;;27.27;37.54
43934;BME280;59081;42.706;23.306;2022-09-30T10:19:32;95226.25;;;27.85;37.61
43934;BME280;59081;42.706;23.306;2022-09-30T10:24:35;95199.25;;;28.04;36.17
43934;BME280;59081;42.706;23.306;2022-09-30T10:27:01;95177.75;;;28.30;35.45
43934;BME280;59081;42.706;23.306;2022-09-30T10:29:31;95154.63;;;27.97;34.00
43934;BME280;59081;42.706;23.306;2022-09-30T10:32:02;95232.38;;;27.96;33.55
43934;BME280;59081;42.706;23.306;2022-09-30T10:34:36;95141.94;;;27.02;34.14
43934;BME280;59081;42.706;23.306;2022-09-30T10:37:20;95229.72;;;27.44;34.72
43934;BME280;59081;42.706;23.306;2022-09-30T10:39:56;95052.28;;;26.02;34.62
43934;BME280;59081;42.706;23.306;2022-09-30T10:42:25;95235.22;;;27.02;34.54
43934;BME280;59081;42.706;23.306;2022-09-30T10:45:19;95232.53;;;26.96;35.56
43934;BME280;59081;42.706;23.306;2022-09-30T10:47:54;95069.81;;;25.69;36.89
43934;BME280;59081;42.706;23.306;2022-09-30T10:50:24;95104.91;;;25.87;35.14
43934;BME280;59081;42.706;23.306;2022-09-30T10:52:55;95235.63;;;27.32;34.06
43934;BME280;59081;42.706;23.306;2022-09-30T10:55:40;95197.69;;;27.28;34.14
43934;BME280;59081;42.706;23.306;2022-09-30T11:01:25;95231.44;;;28.56;32.31
43934;BME280;59081;42.706;23.306;2022-09-30T11:03:58;95157.19;;;28.29;31.53
43934;BME280;59081;42.706;23.306;2022-09-30T11:06:27;95200.50;;;28.37;31.48
43934;BME280;59081;42.706;23.306;2022-09-30T11:09:19;95231.72;;;29.02;31.39
43934;BME280;59081;42.706;23.306;2022-09-30T11:11:59;95164.72;;;28.84;29.86
43934;BME280;59081;42.706;23.306;2022-09-30T11:14:44;95069.59;;;27.82;30.34
43934;BME280;59081;42.706;23.306;2022-09-30T11:18:00;95226.13;;;28.60;29.62
43934;BME280;59081;42.706;23.306;2022-09-30T11:20:18;95152.63;;;28.05;29.95
43934;BME280;59081;42.706;23.306;2022-09-30T11:22:55;95156.94;;;28.48;29.94
43934;BME280;59081;42.706;23.306;2022-09-30T11:25:37;95172.81;;;28.80;30.05
43934;BME280;59081;42.706;23.306;2022-09-30T11:34:03;95150.84;;;27.06;31.22
43934;BME280;59081;42.706;23.306;2022-09-30T11:39:54;95141.03;;;27.20;29.44
43934;BME280;59081;42.706;23.306;2022-09-30T11:42:31;95192.13;;;27.35;30.14
43934;BME280;59081;42.706;23.306;2022-09-30T11:45:30;95143.94;;;27.28;29.45
43934;BME280;59081;42.706;23.306;2022-09-30T11:50:42;95235.06;;;27.47;31.10
43934;BME280;59081;42.706;23.306;2022-09-30T11:58:38;95050.75;;;26.28;29.89
43934;BME280;59081;42.706;23.306;2022-09-30T12:04:21;95194.25;;;26.69;31.72
43934;BME280;59081;42.706;23.306;2022-09-30T12:06:59;95116.25;;;25.68;31.88
43934;BME280;59081;42.706;23.306;2022-09-30T12:09:54;95124.44;;;25.85;32.20
43934;BME280;59081;42.706;23.306;2022-09-30T12:12:23;95210.78;;;26.20;33.09
43934;BME280;59081;42.706;23.306;2022-09-30T12:14:54;95180.63;;;25.32;33.49
43934;BME280;59081;42.706;23.306;2022-09-30T12:19:58;95067.00;;;24.30;34.72
43934;BME280;59081;42.706;23.306;2022-09-30T12:22:36;95116.41;;;24.69;34.73
43934;BME280;59081;42.706;23.306;2022-09-30T12:25:15;95152.75;;;25.28;34.26
43934;BME280;59081;42.706;23.306;2022-09-30T12:30:18;95220.03;;;26.20;33.74
43934;BME280;59081;42.706;23.306;2022-09-30T12:35:50;95244.13;;;26.53;34.13
43934;BME280;59081;42.706;23.306;2022-09-30T12:47:00;95254.91;;;27.08;32.08
43934;BME280;59081;42.706;23.306;2022-09-30T12:49:28;95273.59;;;27.24;31.41
43934;BME280;59081;42.706;23.306;2022-09-30T12:51:59;95149.28;;;26.31;31.73
43934;BME280;59081;42.706;23.306;2022-09-30T12:54:48;95142.31;;;26.59;31.52
43934;BME280;59081;42.706;23.306;2022-09-30T12:57:20;95087.63;;;26.96;30.30
43934;BME280;59081;42.706;23.306;2022-09-30T12:59:54;95122.50;;;26.85;30.83
43934;BME280;59081;42.706;23.306;2022-09-30T13:10:43;95199.38;;;26.84;30.30
43934;BME280;59081;42.706;23.306;2022-09-30T13:28:54;95200.19;;;26.26;31.48
43934;BME280;59081;42.706;23.306;2022-09-30T13:31:24;95206.34;;;26.96;30.47
43934;BME280;59081;42.706;23.306;2022-09-30T13:36:38;95195.00;;;27.09;30.15
43934;BME280;59081;42.706;23.306;2022-09-30T13:39:28;95144.31;;;27.11;29.44
43934;BME280;59081;42.706;23.306;2022-09-30T13:42:24;95252.78;;;28.16;29.12
43934;BME280;59081;42.706;23.306;2022-09-30T13:47:27;95264.06;;;28.29;28.40
43934;BME280;59081;42.706;23.306;2022-09-30T13:50:24;95170.66;;;27.74;28.67
43934;BME280;59081;42.706;23.306;2022-09-30T13:52:54;95142.09;;;26.70;30.04
43934;BME280;59081;42.706;23.306;2022-09-30T13:55:31;95152.63;;;26.83;29.77
43934;BME280;59081;42.706;23.306;2022-09-30T14:01:22;95272.19;;;27.30;30.41
43934;BME280;59081;42.706;23.306;2022-09-30T14:04:21;95272.41;;;27.32;30.59
43934;BME280;59081;42.706;23.306;2022-09-30T14:07:23;95158.69;;;26.87;29.80
43934;BME280;59081;42.706;23.306;2022-09-30T14:10:15;95206.63;;;26.79;29.93
43934;BME280;59081;42.706;23.306;2022-09-30T14:15:31;95234.59;;;26.96;30.64
43934;BME280;59081;42.706;23.306;2022-09-30T14:23:26;95185.88;;;26.77;30.50
43934;BME280;59081;42.706;23.306;2022-09-30T14:31:14;95170.69;;;26.66;30.14
43934;BME280;59081;42.706;23.306;2022-09-30T14:33:42;95164.94;;;26.46;30.28
43934;BME280;59081;42.706;23.306;2022-09-30T14:36:19;95214.38;;;26.65;30.89
43934;BME280;59081;42.706;23.306;2022-09-30T14:38:50;95214.34;;;26.79;30.76
43934;BME280;59081;42.706;23.306;2022-09-30T14:41:22;95226.66;;;26.94;30.87
43934;BME280;59081;42.706;23.306;2022-09-30T14:43:50;95199.69;;;26.41;31.27
43934;BME280;59081;42.706;23.306;2022-09-30T14:46:36;95186.28;;;26.15;31.53
43934;BME280;59081;42.706;23.306;2022-09-30T14:49:13;95174.75;;;25.81;32.33
43934;BME280;59081;42.706;23.306;2022-09-30T14:51:43;95183.91;;;25.87;31.74
43934;BME280;59081;42.706;23.306;2022-09-30T14:56:44;95167.53;;;25.35;32.92
43934;BME280;59081;42.706;23.306;2022-09-30T14:59:18;95192.06;;;25.40;33.34
43934;BME280;59081;42.706;23.306;2022-09-30T15:01:46;95258.22;;;25.76;33.38
43934;BME280;59081;42.706;23.306;2022-09-30T15:04:16;95243.13;;;25.55;33.37
43934;BME280;59081;42.706;23.306;2022-09-30T15:06:45;95229.09;;;25.30;33.63
43934;BME280;59081;42.706;23.306;2022-09-30T15:09:42;95310.00;;;25.79;34.20
43934;BME280;59081;42.706;23.306;2022-09-30T15:12:12;95299.53;;;25.74;34.57
43934;BME280;59081;42.706;23.306;2022-09-30T15:15:20;95257.22;;;25.36;34.54
43934;BME280;59081;42.706;23.306;2022-09-30T15:17:46;95293.09;;;25.36;34.71
43934;BME280;59081;42.706;23.306;2022-09-30T15:20:32;95171.28;;;24.62;35.47
43934;BME280;59081;42.706;23.306;2022-09-30T15:23:01;95213.03;;;24.82;35.26
43934;BME280;59081;42.706;23.306;2022-09-30T15:25:29;95210.88;;;24.70;35.31
43934;BME280;59081;42.706;23.306;2022-09-30T15:27:55;95166.56;;;24.27;35.29
43934;BME280;59081;42.706;23.306;2022-09-30T15:30:24;95258.06;;;24.63;35.93
43934;BME280;59081;42.706;23.306;2022-09-30T15:33:01;95212.88;;;24.26;36.00
43934;BME280;59081;42.706;23.306;2022-09-30T15:35:30;95316.47;;;24.87;35.85
43934;BME280;59081;42.706;23.306;2022-09-30T15:38:08;95248.09;;;24.38;36.44
43934;BME280;59081;42.706;23.306;2022-09-30T15:40:35;95209.34;;;23.90;37.36
43934;BME280;59081;42.706;23.306;2022-09-30T15:43:41;95132.41;;;23.22;37.06
43934;BME280;59081;42.706;23.306;2022-09-30T15:48:41;95223.97;;;23.53;38.13
43934;BME280;59081;42.706;23.306;2022-09-30T15:51:34;95355.88;;;24.33;38.04
43934;BME280;59081;42.706;23.306;2022-09-30T15:56:40;95372.34;;;24.23;38.56
43934;BME280;59081;42.706;23.306;2022-09-30T15:59:11;95294.41;;;23.72;38.50
43934;BME280;59081;42.706;23.306;2022-09-30T16:01:40;95367.09;;;23.98;39.08
43934;BME280;59081;42.706;23.306;2022-09-30T16:04:23;95294.53;;;23.38;39.29
43934;BME280;59081;42.706;23.306;2022-09-30T16:07:07;95222.59;;;22.66;39.41
43934;BME280;59081;42.706;23.306;2022-09-30T16:09:36;95242.22;;;22.77;39.66
43934;BME280;59081;42.706;23.306;2022-09-30T16:12:09;95387.22;;;23.66;40.07
43934;BME280;59081;42.706;23.306;2022-09-30T16:14:43;95397.84;;;23.21;41.03
43934;BME280;59081;42.706;23.306;2022-09-30T16:17:16;95228.81;;;21.92;41.84
43934;BME280;59081;42.706;23.306;2022-09-30T16:19:56;95321.13;;;22.40;42.19
43934;BME280;59081;42.706;23.306;2022-09-30T16:27:35;95318.59;;;22.14;44.05
43934;BME280;59081;42.706;23.306;2022-09-30T16:30:03;95341.81;;;22.26;44.29